sensor_id;sensor_type;location;lat;lon;timestamp;P1;durP1;ratioP1;P2;durP2;ratioP2
3647;SDS011;1840;48.892;15.312;2023-04-08T00:01:57;29.30;;;19.10;;
3647;SDS011;1840;48.892;15.312;2023-04-08T00:04:25;28.10;;;18.07;;
3647;SDS011;1840;48.892;15.312;2023-04-08T00:06:53;26.27;;;17.90;;
3647;SDS011;1840;48.892;15.312;2023-04-08T00:09:21;27.00;;;17.80;;
3647;SDS011;1840;48.892;15.312;2023-04-08T00:11:51;28.20;;;17.40;;
3647;SDS011;1840;48.892;15.312;2023-04-08T00:14:21;28.00;;;17.30;;
3647;SDS011;1840;48.892;15.312;2023-04-08T00:16:49;25.63;;;16.93;;
3647;SDS011;1840;48.892;15.312;2023-04-08T00:19:18;23.83;;;16.20;;
3647;SDS011;1840;48.892;15.312;2023-04-08T00:21:46;28.53;;;16.73;;
3647;SDS011;1840;48.892;15.312;2023-04-08T00:24:14;21.90;;;14.67;;
3647;SDS011;1840;48.892;15.312;2023-04-08T00:26:42;25.60;;;16.27;;
3647;SDS011;1840;48.892;15.312;2023-04-08T00:29:10;25.53;;;16.60;;
3647;SDS011;1840;48.892;15.312;2023-04-08T00:31:39;28.17;;;18.20;;
3647;SDS011;1840;48.892;15.312;2023-04-08T00:34:08;24.93;;;16.47;;
3647;SDS011;1840;48.892;15.312;2023-04-08T00:36:36;23.90;;;16.30;;
3647;SDS011;1840;48.892;15.312;2023-04-08T00:39:05;26.93;;;16.60;;
3647;SDS011;1840;48.892;15.312;2023-04-08T00:41:33;24.90;;;17.00;;
3647;SDS011;1840;48.892;15.312;2023-04-08T00:44:01;26.73;;;16.27;;
3647;SDS011;1840;48.892;15.312;2023-04-08T00:46:29;22.50;;;15.80;;
3647;SDS011;1840;48.892;15.312;2023-04-08T00:49:01;24.43;;;14.97;;
3647;SDS011;1840;48.892;15.312;2023-04-08T00:51:29;25.80;;;14.90;;
3647;SDS011;1840;48.892;15.312;2023-04-08T00:53:57;24.10;;;15.73;;
3647;SDS011;1840;48.892;15.312;2023-04-08T00:56:26;26.00;;;16.57;;
3647;SDS011;1840;48.892;15.312;2023-04-08T00:58:54;25.60;;;16.20;;
3647;SDS011;1840;48.892;15.312;2023-04-08T01:01:25;29.40;;;17.33;;
3647;SDS011;1840;48.892;15.312;2023-04-08T01:04:04;29.03;;;18.40;;
3647;SDS011;1840;48.892;15.312;2023-04-08T01:06:40;27.10;;;15.87;;
3647;SDS011;1840;48.892;15.312;2023-04-08T01:09:16;27.63;;;17.37;;
3647;SDS011;1840;48.892;15.312;2023-04-08T01:11:48;27.43;;;17.43;;
3647;SDS011;1840;48.892;15.312;2023-04-08T01:14:20;28.30;;;17.23;;
3647;SDS011;1840;48.892;15.312;2023-04-08T01:16:51;28.57;;;18.13;;
3647;SDS011;1840;48.892;15.312;2023-04-08T01:19:26;33.40;;;18.57;;
3647;SDS011;1840;48.892;15.312;2023-04-08T01:22:00;32.90;;;18.90;;
3647;SDS011;1840;48.892;15.312;2023-04-08T01:24:32;31.03;;;18.47;;
3647;SDS011;1840;48.892;15.312;2023-04-08T01:27:04;30.10;;;18.23;;
3647;SDS011;1840;48.892;15.312;2023-04-08T01:29:34;35.50;;;20.57;;
3647;SDS011;1840;48.892;15.312;2023-04-08T01:32:03;31.30;;;18.40;;
3647;SDS011;1840;48.892;15.312;2023-04-08T01:34:34;33.20;;;19.13;;
3647;SDS011;1840;48.892;15.312;2023-04-08T01:37:03;35.50;;;19.77;;
3647;SDS011;1840;48.892;15.312;2023-04-08T01:39:33;34.77;;;20.00;;
3647;SDS011;1840;48.892;15.312;2023-04-08T01:42:02;37.00;;;20.47;;
3647;SDS011;1840;48.892;15.312;2023-04-08T01:44:32;34.00;;;20.50;;
3647;SDS011;1840;48.892;15.312;2023-04-08T01:47:02;37.60;;;21.80;;
3647;SDS011;1840;48.892;15.312;2023-04-08T01:49:30;30.77;;;18.87;;
3647;SDS011;1840;48.892;15.312;2023-04-08T01:51:59;32.70;;;19.33;;
3647;SDS011;1840;48.892;15.312;2023-04-08T01:54:27;35.43;;;20.27;;
3647;SDS011;1840;48.892;15.312;2023-04-08T01:56:55;35.37;;;20.07;;
3647;SDS011;1840;48.892;15.312;2023-04-08T01:59:27;36.37;;;20.37;;
3647;SDS011;1840;48.892;15.312;2023-04-08T02:01:59;35.60;;;20.67;;
3647;SDS011;1840;48.892;15.312;2023-04-08T02:04:28;33.87;;;20.10;;
3647;SDS011;1840;48.892;15.312;2023-04-08T02:06:56;35.37;;;19.33;;
3647;SDS011;1840;48.892;15.312;2023-04-08T02:09:25;33.33;;;19.10;;
3647;SDS011;1840;48.892;15.312;2023-04-08T02:11:53;34.10;;;19.27;;
3647;SDS011;1840;48.892;15.312;2023-04-08T02:14:22;31.30;;;20.20;;
3647;SDS011;1840;48.892;15.312;2023-04-08T02:16:53;33.63;;;19.73;;
3647;SDS011;1840;48.892;15.312;2023-04-08T02:19:28;33.90;;;19.63;;
3647;SDS011;1840;48.892;15.312;2023-04-08T02:22:04;37.03;;;21.13;;
3647;SDS011;1840;48.892;15.312;2023-04-08T02:24:37;49.93;;;35.70;;
3647;SDS011;1840;48.892;15.312;2023-04-08T02:27:06;35.07;;;20.90;;
3647;SDS011;1840;48.892;15.312;2023-04-08T02:29:36;32.97;;;19.97;;
3647;SDS011;1840;48.892;15.312;2023-04-08T02:32:09;35.50;;;20.83;;
3647;SDS011;1840;48.892;15.312;2023-04-08T02:34:38;31.43;;;19.90;;
3647;SDS011;1840;48.892;15.312;2023-04-08T02:37:08;34.23;;;20.67;;
3647;SDS011;1840;48.892;15.312;2023-04-08T02:39:36;36.40;;;20.87;;
3647;SDS011;1840;48.892;15.312;2023-04-08T02:42:04;37.63;;;19.90;;
3647;SDS011;1840;48.892;15.312;2023-04-08T02:44:32;39.70;;;23.37;;
3647;SDS011;1840;48.892;15.312;2023-04-08T02:47:00;38.53;;;21.00;;
3647;SDS011;1840;48.892;15.312;2023-04-08T02:49:29;33.50;;;19.67;;
3647;SDS011;1840;48.892;15.312;2023-04-08T02:51:57;31.70;;;18.43;;
3647;SDS011;1840;48.892;15.312;2023-04-08T02:54:25;37.33;;;21.20;;
3647;SDS011;1840;48.892;15.312;2023-04-08T02:56:53;38.67;;;21.70;;
3647;SDS011;1840;48.892;15.312;2023-04-08T02:59:21;34.03;;;19.93;;
3647;SDS011;1840;48.892;15.312;2023-04-08T03:01:49;37.13;;;19.63;;
3647;SDS011;1840;48.892;15.312;2023-04-08T03:04:17;35.10;;;20.23;;
3647;SDS011;1840;48.892;15.312;2023-04-08T03:06:46;39.63;;;22.63;;
3647;SDS011;1840;48.892;15.312;2023-04-08T03:09:14;30.67;;;19.97;;
3647;SDS011;1840;48.892;15.312;2023-04-08T03:11:43;30.90;;;19.27;;
3647;SDS011;1840;48.892;15.312;2023-04-08T03:14:11;35.37;;;20.93;;
3647;SDS011;1840;48.892;15.312;2023-04-08T03:16:39;34.53;;;20.60;;
3647;SDS011;1840;48.892;15.312;2023-04-08T03:19:07;33.83;;;21.93;;
3647;SDS011;1840;48.892;15.312;2023-04-08T03:21:35;29.50;;;19.07;;
3647;SDS011;1840;48.892;15.312;2023-04-08T03:24:04;32.77;;;18.70;;
3647;SDS011;1840;48.892;15.312;2023-04-08T03:26:32;31.50;;;19.90;;
3647;SDS011;1840;48.892;15.312;2023-04-08T03:29:00;34.10;;;19.37;;
3647;SDS011;1840;48.892;15.312;2023-04-08T03:31:28;37.10;;;19.33;;
3647;SDS011;1840;48.892;15.312;2023-04-08T03:33:56;34.90;;;19.20;;
3647;SDS011;1840;48.892;15.312;2023-04-08T03:36:24;32.67;;;19.73;;
3647;SDS011;1840;48.892;15.312;2023-04-08T03:38:53;34.53;;;20.10;;
3647;SDS011;1840;48.892;15.312;2023-04-08T03:41:22;28.03;;;18.20;;
3647;SDS011;1840;48.892;15.312;2023-04-08T03:43:50;26.90;;;16.73;;
3647;SDS011;1840;48.892;15.312;2023-04-08T03:46:18;32.57;;;16.90;;
3647;SDS011;1840;48.892;15.312;2023-04-08T03:48:47;27.27;;;17.73;;
3647;SDS011;1840;48.892;15.312;2023-04-08T03:51:16;29.33;;;18.00;;
3647;SDS011;1840;48.892;15.312;2023-04-08T03:53:44;27.00;;;17.10;;
3647;SDS011;1840;48.892;15.312;2023-04-08T03:56:13;26.80;;;16.67;;
3647;SDS011;1840;48.892;15.312;2023-04-08T03:58:42;28.00;;;18.03;;
3647;SDS011;1840;48.892;15.312;2023-04-08T04:01:11;27.50;;;16.77;;
3647;SDS011;1840;48.892;15.312;2023-04-08T04:03:39;31.87;;;19.20;;
3647;SDS011;1840;48.892;15.312;2023-04-08T04:06:07;27.20;;;16.87;;
3647;SDS011;1840;48.892;15.312;2023-04-08T04:08:35;30.43;;;18.10;;
3647;SDS011;1840;48.892;15.312;2023-04-08T04:11:04;27.27;;;16.00;;
3647;SDS011;1840;48.892;15.312;2023-04-08T04:13:32;27.67;;;17.47;;
3647;SDS011;1840;48.892;15.312;2023-04-08T04:16:01;31.97;;;19.77;;
3647;SDS011;1840;48.892;15.312;2023-04-08T04:18:30;30.40;;;17.10;;
3647;SDS011;1840;48.892;15.312;2023-04-08T04:20:58;33.30;;;19.73;;
3647;SDS011;1840;48.892;15.312;2023-04-08T04:23:26;29.67;;;18.33;;
3647;SDS011;1840;48.892;15.312;2023-04-08T04:25:54;25.37;;;16.90;;
3647;SDS011;1840;48.892;15.312;2023-04-08T04:28:22;29.10;;;18.23;;
3647;SDS011;1840;48.892;15.312;2023-04-08T04:30:50;32.97;;;20.47;;
3647;SDS011;1840;48.892;15.312;2023-04-08T04:33:23;42.33;;;24.37;;
3647;SDS011;1840;48.892;15.312;2023-04-08T04:39:51;34.60;;;19.77;;
3647;SDS011;1840;48.892;15.312;2023-04-08T04:42:19;29.23;;;18.97;;
3647;SDS011;1840;48.892;15.312;2023-04-08T04:44:47;33.27;;;21.23;;
3647;SDS011;1840;48.892;15.312;2023-04-08T04:47:15;43.73;;;26.20;;
3647;SDS011;1840;48.892;15.312;2023-04-08T04:49:45;27.10;;;16.10;;
3647;SDS011;1840;48.892;15.312;2023-04-08T04:52:13;31.93;;;17.70;;
3647;SDS011;1840;48.892;15.312;2023-04-08T04:54:41;30.70;;;18.70;;
3647;SDS011;1840;48.892;15.312;2023-04-08T04:57:10;25.70;;;17.20;;
3647;SDS011;1840;48.892;15.312;2023-04-08T04:59:38;25.33;;;16.30;;
3647;SDS011;1840;48.892;15.312;2023-04-08T05:02:06;32.57;;;20.10;;
3647;SDS011;1840;48.892;15.312;2023-04-08T05:04:35;27.43;;;17.60;;
3647;SDS011;1840;48.892;15.312;2023-04-08T05:07:04;25.90;;;17.50;;
3647;SDS011;1840;48.892;15.312;2023-04-08T05:09:32;42.00;;;28.63;;
3647;SDS011;1840;48.892;15.312;2023-04-08T05:12:00;22.07;;;15.00;;
3647;SDS011;1840;48.892;15.312;2023-04-08T05:14:28;31.93;;;20.27;;
3647;SDS011;1840;48.892;15.312;2023-04-08T05:16:56;21.27;;;14.50;;
3647;SDS011;1840;48.892;15.312;2023-04-08T05:19:24;18.33;;;13.17;;
3647;SDS011;1840;48.892;15.312;2023-04-08T05:21:52;21.03;;;14.73;;
3647;SDS011;1840;48.892;15.312;2023-04-08T05:24:22;41.80;;;23.93;;
3647;SDS011;1840;48.892;15.312;2023-04-08T05:26:50;23.30;;;17.07;;
3647;SDS011;1840;48.892;15.312;2023-04-08T05:29:18;26.00;;;16.60;;
3647;SDS011;1840;48.892;15.312;2023-04-08T05:31:47;31.70;;;21.20;;
3647;SDS011;1840;48.892;15.312;2023-04-08T05:34:15;23.23;;;15.27;;
3647;SDS011;1840;48.892;15.312;2023-04-08T05:36:48;28.37;;;17.60;;
3647;SDS011;1840;48.892;15.312;2023-04-08T05:39:18;22.23;;;15.10;;
3647;SDS011;1840;48.892;15.312;2023-04-08T05:41:47;21.17;;;13.60;;
3647;SDS011;1840;48.892;15.312;2023-04-08T05:44:15;21.67;;;14.07;;
3647;SDS011;1840;48.892;15.312;2023-04-08T05:46:43;20.00;;;14.27;;
3647;SDS011;1840;48.892;15.312;2023-04-08T05:49:11;20.97;;;14.23;;
3647;SDS011;1840;48.892;15.312;2023-04-08T05:51:40;24.23;;;15.10;;
3647;SDS011;1840;48.892;15.312;2023-04-08T05:54:08;26.63;;;14.70;;
3647;SDS011;1840;48.892;15.312;2023-04-08T05:56:36;22.90;;;14.60;;
3647;SDS011;1840;48.892;15.312;2023-04-08T05:59:06;22.10;;;15.47;;
3647;SDS011;1840;48.892;15.312;2023-04-08T06:01:34;23.63;;;15.70;;
3647;SDS011;1840;48.892;15.312;2023-04-08T06:04:02;22.57;;;14.43;;
3647;SDS011;1840;48.892;15.312;2023-04-08T06:06:30;24.67;;;14.80;;
3647;SDS011;1840;48.892;15.312;2023-04-08T06:08:58;21.87;;;14.70;;
3647;SDS011;1840;48.892;15.312;2023-04-08T06:11:26;40.57;;;21.60;;
3647;SDS011;1840;48.892;15.312;2023-04-08T06:13:54;31.00;;;20.17;;
3647;SDS011;1840;48.892;15.312;2023-04-08T06:16:23;31.17;;;19.80;;
3647;SDS011;1840;48.892;15.312;2023-04-08T06:18:52;29.17;;;16.97;;
3647;SDS011;1840;48.892;15.312;2023-04-08T06:21:20;25.23;;;16.60;;
3647;SDS011;1840;48.892;15.312;2023-04-08T06:23:48;21.97;;;15.47;;
3647;SDS011;1840;48.892;15.312;2023-04-08T06:28:58;28.27;;;18.90;;
3647;SDS011;1840;48.892;15.312;2023-04-08T06:31:28;39.40;;;20.30;;
3647;SDS011;1840;48.892;15.312;2023-04-08T06:33:56;46.60;;;24.37;;
3647;SDS011;1840;48.892;15.312;2023-04-08T06:36:24;25.63;;;17.50;;
3647;SDS011;1840;48.892;15.312;2023-04-08T06:38:53;33.57;;;19.33;;
3647;SDS011;1840;48.892;15.312;2023-04-08T06:41:21;23.10;;;15.37;;
3647;SDS011;1840;48.892;15.312;2023-04-08T06:44:20;21.77;;;14.10;;
3647;SDS011;1840;48.892;15.312;2023-04-08T06:46:48;23.30;;;14.97;;
3647;SDS011;1840;48.892;15.312;2023-04-08T06:49:16;22.47;;;14.97;;
3647;SDS011;1840;48.892;15.312;2023-04-08T06:51:44;28.10;;;17.13;;
3647;SDS011;1840;48.892;15.312;2023-04-08T06:54:12;23.17;;;15.47;;
3647;SDS011;1840;48.892;15.312;2023-04-08T06:58:49;24.47;;;15.63;;
3647;SDS011;1840;48.892;15.312;2023-04-08T07:01:17;22.13;;;14.57;;
3647;SDS011;1840;48.892;15.312;2023-04-08T07:03:45;27.47;;;15.93;;
3647;SDS011;1840;48.892;15.312;2023-04-08T07:06:13;22.90;;;15.80;;
3647;SDS011;1840;48.892;15.312;2023-04-08T07:08:41;29.27;;;18.00;;
3647;SDS011;1840;48.892;15.312;2023-04-08T07:11:09;29.80;;;16.07;;
3647;SDS011;1840;48.892;15.312;2023-04-08T07:13:37;25.50;;;16.00;;
3647;SDS011;1840;48.892;15.312;2023-04-08T07:16:07;27.60;;;17.17;;
3647;SDS011;1840;48.892;15.312;2023-04-08T07:18:35;27.17;;;18.33;;
3647;SDS011;1840;48.892;15.312;2023-04-08T07:21:03;37.83;;;20.27;;
3647;SDS011;1840;48.892;15.312;2023-04-08T07:23:31;25.43;;;16.70;;
3647;SDS011;1840;48.892;15.312;2023-04-08T07:26:00;29.20;;;19.47;;
3647;SDS011;1840;48.892;15.312;2023-04-08T07:28:29;30.10;;;18.50;;
3647;SDS011;1840;48.892;15.312;2023-04-08T07:31:08;37.90;;;21.20;;
3647;SDS011;1840;48.892;15.312;2023-04-08T07:33:37;27.17;;;17.50;;
3647;SDS011;1840;48.892;15.312;2023-04-08T07:36:05;31.60;;;19.50;;
3647;SDS011;1840;48.892;15.312;2023-04-08T07:38:33;31.20;;;20.10;;
3647;SDS011;1840;48.892;15.312;2023-04-08T07:41:01;37.37;;;21.87;;
3647;SDS011;1840;48.892;15.312;2023-04-08T07:43:29;36.17;;;21.47;;
3647;SDS011;1840;48.892;15.312;2023-04-08T07:45:59;35.63;;;21.43;;
3647;SDS011;1840;48.892;15.312;2023-04-08T07:48:30;34.30;;;21.30;;
3647;SDS011;1840;48.892;15.312;2023-04-08T07:51:01;39.10;;;23.90;;
3647;SDS011;1840;48.892;15.312;2023-04-08T07:53:36;30.93;;;20.17;;
3647;SDS011;1840;48.892;15.312;2023-04-08T07:56:09;41.73;;;23.63;;
3647;SDS011;1840;48.892;15.312;2023-04-08T07:58:39;43.37;;;22.73;;
3647;SDS011;1840;48.892;15.312;2023-04-08T08:01:16;32.10;;;21.27;;
3647;SDS011;1840;48.892;15.312;2023-04-08T08:03:48;33.83;;;19.80;;
3647;SDS011;1840;48.892;15.312;2023-04-08T08:06:18;34.93;;;18.53;;
3647;SDS011;1840;48.892;15.312;2023-04-08T08:08:46;31.20;;;18.97;;
3647;SDS011;1840;48.892;15.312;2023-04-08T08:11:14;29.77;;;17.20;;
3647;SDS011;1840;48.892;15.312;2023-04-08T08:13:42;32.13;;;18.23;;
3647;SDS011;1840;48.892;15.312;2023-04-08T08:16:10;28.30;;;17.40;;
3647;SDS011;1840;48.892;15.312;2023-04-08T08:18:39;27.60;;;16.70;;
3647;SDS011;1840;48.892;15.312;2023-04-08T08:21:08;33.30;;;19.33;;
3647;SDS011;1840;48.892;15.312;2023-04-08T08:23:36;67.77;;;40.90;;
3647;SDS011;1840;48.892;15.312;2023-04-08T08:26:05;39.83;;;21.20;;
3647;SDS011;1840;48.892;15.312;2023-04-08T08:28:36;31.50;;;18.90;;
3647;SDS011;1840;48.892;15.312;2023-04-08T08:31:04;31.73;;;18.03;;
3647;SDS011;1840;48.892;15.312;2023-04-08T08:33:33;40.50;;;24.03;;
3647;SDS011;1840;48.892;15.312;2023-04-08T08:36:01;36.13;;;22.80;;
3647;SDS011;1840;48.892;15.312;2023-04-08T08:38:31;30.43;;;18.60;;
3647;SDS011;1840;48.892;15.312;2023-04-08T08:40:59;24.40;;;15.10;;
3647;SDS011;1840;48.892;15.312;2023-04-08T08:43:29;26.77;;;16.07;;
3647;SDS011;1840;48.892;15.312;2023-04-08T08:45:58;37.67;;;25.00;;
3647;SDS011;1840;48.892;15.312;2023-04-08T08:48:27;38.70;;;24.73;;
3647;SDS011;1840;48.892;15.312;2023-04-08T08:50:55;23.33;;;15.03;;
3647;SDS011;1840;48.892;15.312;2023-04-08T08:53:27;30.87;;;16.87;;
3647;SDS011;1840;48.892;15.312;2023-04-08T08:56:01;46.27;;;29.50;;
3647;SDS011;1840;48.892;15.312;2023-04-08T08:58:32;26.27;;;16.60;;
3647;SDS011;1840;48.892;15.312;2023-04-08T09:01:00;31.27;;;21.60;;
3647;SDS011;1840;48.892;15.312;2023-04-08T09:03:28;27.80;;;16.87;;
3647;SDS011;1840;48.892;15.312;2023-04-08T09:05:57;26.37;;;16.10;;
3647;SDS011;1840;48.892;15.312;2023-04-08T09:08:27;28.43;;;15.90;;
3647;SDS011;1840;48.892;15.312;2023-04-08T09:11:11;26.63;;;16.13;;
3647;SDS011;1840;48.892;15.312;2023-04-08T09:13:41;27.47;;;17.10;;
3647;SDS011;1840;48.892;15.312;2023-04-08T09:16:10;36.13;;;21.53;;
3647;SDS011;1840;48.892;15.312;2023-04-08T09:18:40;32.73;;;21.50;;
3647;SDS011;1840;48.892;15.312;2023-04-08T09:21:10;23.10;;;14.83;;
3647;SDS011;1840;48.892;15.312;2023-04-08T09:23:40;28.57;;;16.10;;
3647;SDS011;1840;48.892;15.312;2023-04-08T09:26:11;25.53;;;15.43;;
3647;SDS011;1840;48.892;15.312;2023-04-08T09:28:41;24.07;;;15.47;;
3647;SDS011;1840;48.892;15.312;2023-04-08T09:31:20;25.70;;;16.93;;
3647;SDS011;1840;48.892;15.312;2023-04-08T09:33:48;26.57;;;18.03;;
3647;SDS011;1840;48.892;15.312;2023-04-08T09:36:18;26.53;;;15.80;;
3647;SDS011;1840;48.892;15.312;2023-04-08T09:38:47;26.77;;;17.07;;
3647;SDS011;1840;48.892;15.312;2023-04-08T09:41:17;23.87;;;15.10;;
3647;SDS011;1840;48.892;15.312;2023-04-08T09:43:49;26.23;;;16.00;;
3647;SDS011;1840;48.892;15.312;2023-04-08T09:46:23;22.97;;;15.77;;
3647;SDS011;1840;48.892;15.312;2023-04-08T09:48:58;24.37;;;15.70;;
3647;SDS011;1840;48.892;15.312;2023-04-08T09:51:32;26.93;;;17.70;;
3647;SDS011;1840;48.892;15.312;2023-04-08T09:54:09;47.23;;;27.40;;
3647;SDS011;1840;48.892;15.312;2023-04-08T09:56:56;34.03;;;19.23;;
3647;SDS011;1840;48.892;15.312;2023-04-08T09:59:29;28.10;;;16.57;;
3647;SDS011;1840;48.892;15.312;2023-04-08T10:02:02;31.30;;;18.00;;
3647;SDS011;1840;48.892;15.312;2023-04-08T10:04:37;33.63;;;19.80;;
3647;SDS011;1840;48.892;15.312;2023-04-08T10:07:08;26.63;;;16.10;;
3647;SDS011;1840;48.892;15.312;2023-04-08T10:09:36;29.23;;;19.40;;
3647;SDS011;1840;48.892;15.312;2023-04-08T10:12:08;35.77;;;21.93;;
3647;SDS011;1840;48.892;15.312;2023-04-08T10:14:36;41.30;;;21.67;;
3647;SDS011;1840;48.892;15.312;2023-04-08T10:17:23;40.60;;;20.90;;
3647;SDS011;1840;48.892;15.312;2023-04-08T10:19:52;46.90;;;23.90;;
3647;SDS011;1840;48.892;15.312;2023-04-08T10:25:29;37.33;;;21.57;;
3647;SDS011;1840;48.892;15.312;2023-04-08T10:28:00;43.37;;;22.50;;
3647;SDS011;1840;48.892;15.312;2023-04-08T10:30:49;44.77;;;24.30;;
3647;SDS011;1840;48.892;15.312;2023-04-08T10:33:20;33.10;;;19.17;;
3647;SDS011;1840;48.892;15.312;2023-04-08T10:35:51;42.23;;;21.70;;
3647;SDS011;1840;48.892;15.312;2023-04-08T10:38:20;46.80;;;22.90;;
3647;SDS011;1840;48.892;15.312;2023-04-08T10:40:49;49.00;;;25.43;;
3647;SDS011;1840;48.892;15.312;2023-04-08T10:43:19;46.13;;;24.50;;
3647;SDS011;1840;48.892;15.312;2023-04-08T10:45:47;41.90;;;20.03;;
3647;SDS011;1840;48.892;15.312;2023-04-08T10:48:17;48.33;;;24.30;;
3647;SDS011;1840;48.892;15.312;2023-04-08T10:50:51;38.10;;;19.77;;
3647;SDS011;1840;48.892;15.312;2023-04-08T10:53:27;45.00;;;25.00;;
3647;SDS011;1840;48.892;15.312;2023-04-08T10:56:02;40.97;;;22.67;;
3647;SDS011;1840;48.892;15.312;2023-04-08T10:58:33;39.37;;;21.97;;
3647;SDS011;1840;48.892;15.312;2023-04-08T11:01:03;34.13;;;17.80;;
3647;SDS011;1840;48.892;15.312;2023-04-08T11:03:32;71.43;;;39.13;;
3647;SDS011;1840;48.892;15.312;2023-04-08T11:06:13;46.00;;;24.17;;
3647;SDS011;1840;48.892;15.312;2023-04-08T11:08:42;61.00;;;34.33;;
3647;SDS011;1840;48.892;15.312;2023-04-08T11:11:10;48.50;;;26.77;;
3647;SDS011;1840;48.892;15.312;2023-04-08T11:13:41;54.90;;;29.27;;
3647;SDS011;1840;48.892;15.312;2023-04-08T11:16:18;36.90;;;21.37;;
3647;SDS011;1840;48.892;15.312;2023-04-08T11:18:49;38.40;;;20.00;;
3647;SDS011;1840;48.892;15.312;2023-04-08T11:21:17;36.23;;;19.57;;
3647;SDS011;1840;48.892;15.312;2023-04-08T11:23:48;37.13;;;20.60;;
3647;SDS011;1840;48.892;15.312;2023-04-08T11:26:17;34.83;;;18.90;;
3647;SDS011;1840;48.892;15.312;2023-04-08T11:28:47;30.80;;;16.97;;
3647;SDS011;1840;48.892;15.312;2023-04-08T11:31:17;30.83;;;16.77;;
3647;SDS011;1840;48.892;15.312;2023-04-08T11:33:51;35.30;;;18.63;;
3647;SDS011;1840;48.892;15.312;2023-04-08T11:36:20;34.40;;;18.07;;
3647;SDS011;1840;48.892;15.312;2023-04-08T11:38:48;33.30;;;18.17;;
3647;SDS011;1840;48.892;15.312;2023-04-08T11:41:19;33.80;;;17.93;;
3647;SDS011;1840;48.892;15.312;2023-04-08T11:43:53;30.50;;;18.83;;
3647;SDS011;1840;48.892;15.312;2023-04-08T11:46:22;34.23;;;19.13;;
3647;SDS011;1840;48.892;15.312;2023-04-08T11:49:00;32.50;;;17.47;;
3647;SDS011;1840;48.892;15.312;2023-04-08T11:51:30;31.17;;;17.73;;
3647;SDS011;1840;48.892;15.312;2023-04-08T11:53:59;32.87;;;17.10;;
3647;SDS011;1840;48.892;15.312;2023-04-08T11:56:42;39.00;;;19.13;;
3647;SDS011;1840;48.892;15.312;2023-04-08T11:59:13;30.03;;;16.63;;
3647;SDS011;1840;48.892;15.312;2023-04-08T12:01:41;35.50;;;18.40;;
3647;SDS011;1840;48.892;15.312;2023-04-08T12:04:09;33.43;;;17.60;;
3647;SDS011;1840;48.892;15.312;2023-04-08T12:06:38;32.30;;;17.33;;
3647;SDS011;1840;48.892;15.312;2023-04-08T12:09:08;29.90;;;17.10;;
3647;SDS011;1840;48.892;15.312;2023-04-08T12:11:36;36.73;;;18.97;;
3647;SDS011;1840;48.892;15.312;2023-04-08T12:14:04;39.67;;;20.77;;
3647;SDS011;1840;48.892;15.312;2023-04-08T12:16:34;36.97;;;20.07;;
3647;SDS011;1840;48.892;15.312;2023-04-08T12:19:02;40.57;;;20.60;;
3647;SDS011;1840;48.892;15.312;2023-04-08T12:21:30;50.23;;;24.47;;
3647;SDS011;1840;48.892;15.312;2023-04-08T12:23:59;42.07;;;22.90;;
3647;SDS011;1840;48.892;15.312;2023-04-08T12:26:27;48.07;;;24.30;;
3647;SDS011;1840;48.892;15.312;2023-04-08T12:28:55;53.83;;;26.40;;
3647;SDS011;1840;48.892;15.312;2023-04-08T12:31:23;50.83;;;24.00;;
3647;SDS011;1840;48.892;15.312;2023-04-08T12:33:54;50.47;;;24.33;;
3647;SDS011;1840;48.892;15.312;2023-04-08T12:36:22;56.83;;;25.57;;
3647;SDS011;1840;48.892;15.312;2023-04-08T12:38:52;45.13;;;24.43;;
3647;SDS011;1840;48.892;15.312;2023-04-08T12:41:20;45.50;;;23.33;;
3647;SDS011;1840;48.892;15.312;2023-04-08T12:43:48;42.20;;;24.10;;
3647;SDS011;1840;48.892;15.312;2023-04-08T12:46:16;52.10;;;25.40;;
3647;SDS011;1840;48.892;15.312;2023-04-08T12:48:45;51.53;;;26.40;;
3647;SDS011;1840;48.892;15.312;2023-04-08T12:51:29;68.27;;;35.40;;
3647;SDS011;1840;48.892;15.312;2023-04-08T12:53:57;55.97;;;27.37;;
3647;SDS011;1840;48.892;15.312;2023-04-08T12:56:26;76.63;;;36.90;;
3647;SDS011;1840;48.892;15.312;2023-04-08T12:58:54;45.77;;;25.10;;
3647;SDS011;1840;48.892;15.312;2023-04-08T13:01:23;49.23;;;24.87;;
3647;SDS011;1840;48.892;15.312;2023-04-08T13:03:51;46.93;;;24.17;;
3647;SDS011;1840;48.892;15.312;2023-04-08T13:06:19;48.33;;;23.67;;
3647;SDS011;1840;48.892;15.312;2023-04-08T13:08:49;40.83;;;21.70;;
3647;SDS011;1840;48.892;15.312;2023-04-08T13:11:17;45.17;;;21.67;;
3647;SDS011;1840;48.892;15.312;2023-04-08T13:13:46;47.40;;;24.20;;
3647;SDS011;1840;48.892;15.312;2023-04-08T13:16:14;44.60;;;22.67;;
3647;SDS011;1840;48.892;15.312;2023-04-08T13:18:43;48.27;;;22.90;;
3647;SDS011;1840;48.892;15.312;2023-04-08T13:21:11;42.13;;;23.60;;
3647;SDS011;1840;48.892;15.312;2023-04-08T13:23:39;47.63;;;23.20;;
3647;SDS011;1840;48.892;15.312;2023-04-08T13:26:08;45.57;;;23.20;;
3647;SDS011;1840;48.892;15.312;2023-04-08T13:28:36;45.60;;;24.83;;
3647;SDS011;1840;48.892;15.312;2023-04-08T13:31:22;40.00;;;22.70;;
3647;SDS011;1840;48.892;15.312;2023-04-08T13:33:50;45.23;;;21.90;;
3647;SDS011;1840;48.892;15.312;2023-04-08T13:36:22;36.13;;;21.30;;
3647;SDS011;1840;48.892;15.312;2023-04-08T13:38:50;42.97;;;22.60;;
3647;SDS011;1840;48.892;15.312;2023-04-08T13:41:20;39.93;;;22.10;;
3647;SDS011;1840;48.892;15.312;2023-04-08T13:43:48;35.97;;;20.17;;
3647;SDS011;1840;48.892;15.312;2023-04-08T13:46:16;37.53;;;21.53;;
3647;SDS011;1840;48.892;15.312;2023-04-08T13:48:44;36.63;;;20.10;;
3647;SDS011;1840;48.892;15.312;2023-04-08T13:51:12;38.03;;;19.93;;
3647;SDS011;1840;48.892;15.312;2023-04-08T13:53:41;35.50;;;20.93;;
3647;SDS011;1840;48.892;15.312;2023-04-08T13:56:09;36.90;;;20.27;;
3647;SDS011;1840;48.892;15.312;2023-04-08T13:58:38;36.77;;;20.40;;
3647;SDS011;1840;48.892;15.312;2023-04-08T14:01:08;35.93;;;20.03;;
3647;SDS011;1840;48.892;15.312;2023-04-08T14:03:36;34.20;;;20.33;;
3647;SDS011;1840;48.892;15.312;2023-04-08T14:06:04;33.97;;;19.63;;
3647;SDS011;1840;48.892;15.312;2023-04-08T14:08:33;35.27;;;19.37;;
3647;SDS011;1840;48.892;15.312;2023-04-08T14:11:01;37.07;;;20.83;;
3647;SDS011;1840;48.892;15.312;2023-04-08T14:13:29;38.20;;;21.03;;
3647;SDS011;1840;48.892;15.312;2023-04-08T14:15:59;33.73;;;20.10;;
3647;SDS011;1840;48.892;15.312;2023-04-08T14:18:28;35.00;;;19.83;;
3647;SDS011;1840;48.892;15.312;2023-04-08T14:20:56;36.03;;;20.67;;
3647;SDS011;1840;48.892;15.312;2023-04-08T14:23:24;34.93;;;20.10;;
3647;SDS011;1840;48.892;15.312;2023-04-08T14:25:52;31.03;;;18.50;;
3647;SDS011;1840;48.892;15.312;2023-04-08T14:28:20;37.37;;;21.20;;
3647;SDS011;1840;48.892;15.312;2023-04-08T14:30:48;37.10;;;21.07;;
3647;SDS011;1840;48.892;15.312;2023-04-08T14:33:18;36.37;;;21.20;;
3647;SDS011;1840;48.892;15.312;2023-04-08T14:35:46;33.27;;;20.03;;
3647;SDS011;1840;48.892;15.312;2023-04-08T14:38:14;36.87;;;21.70;;
3647;SDS011;1840;48.892;15.312;2023-04-08T14:40:43;34.63;;;20.07;;
3647;SDS011;1840;48.892;15.312;2023-04-08T14:43:11;33.10;;;19.60;;
3647;SDS011;1840;48.892;15.312;2023-04-08T14:45:39;36.30;;;20.07;;
3647;SDS011;1840;48.892;15.312;2023-04-08T14:48:07;37.07;;;21.70;;
3647;SDS011;1840;48.892;15.312;2023-04-08T14:50:36;37.97;;;21.67;;
3647;SDS011;1840;48.892;15.312;2023-04-08T14:53:05;30.70;;;19.40;;
3647;SDS011;1840;48.892;15.312;2023-04-08T14:55:33;34.63;;;20.30;;
3647;SDS011;1840;48.892;15.312;2023-04-08T14:58:00;35.23;;;21.93;;
3647;SDS011;1840;48.892;15.312;2023-04-08T15:00:29;31.80;;;18.70;;